sensor_id;sensor_type;location;lat;lon;timestamp;P1;durP1;ratioP1;P2;durP2;ratioP2
64957;SDS011;51486;50.232;19.208;2023-02-28T00:00:05;7.77;;;3.70;;
64957;SDS011;51486;50.232;19.208;2023-02-28T00:02:55;9.80;;;4.37;;
64957;SDS011;51486;50.232;19.208;2023-02-28T00:05:41;10.77;;;3.83;;
64957;SDS011;51486;50.232;19.208;2023-02-28T00:08:27;12.40;;;4.97;;
64957;SDS011;51486;50.232;19.208;2023-02-28T00:11:13;7.63;;;4.13;;
64957;SDS011;51486;50.232;19.208;2023-02-28T00:14:00;10.40;;;3.93;;
64957;SDS011;51486;50.232;19.208;2023-02-28T00:16:45;5.60;;;2.87;;
64957;SDS011;51486;50.232;19.208;2023-02-28T00:19:31;8.83;;;3.20;;
64957;SDS011;51486;50.232;19.208;2023-02-28T00:22:18;6.17;;;3.23;;
64957;SDS011;51486;50.232;19.208;2023-02-28T00:25:05;7.33;;;3.53;;
64957;SDS011;51486;50.232;19.208;2023-02-28T00:27:52;11.07;;;3.30;;
64957;SDS011;51486;50.232;19.208;2023-02-28T00:30:38;5.40;;;2.70;;
64957;SDS011;51486;50.232;19.208;2023-02-28T00:33:24;5.90;;;3.10;;
64957;SDS011;51486;50.232;19.208;2023-02-28T00:36:10;9.47;;;3.77;;
64957;SDS011;51486;50.232;19.208;2023-02-28T00:38:56;6.60;;;2.93;;
64957;SDS011;51486;50.232;19.208;2023-02-28T00:41:42;9.43;;;4.20;;
64957;SDS011;51486;50.232;19.208;2023-02-28T00:44:29;9.13;;;3.60;;
64957;SDS011;51486;50.232;19.208;2023-02-28T00:47:15;9.00;;;4.10;;
64957;SDS011;51486;50.232;19.208;2023-02-28T00:50:01;13.73;;;5.10;;
64957;SDS011;51486;50.232;19.208;2023-02-28T00:52:47;10.40;;;4.37;;
64957;SDS011;51486;50.232;19.208;2023-02-28T00:55:33;11.30;;;4.67;;
64957;SDS011;51486;50.232;19.208;2023-02-28T00:58:19;11.17;;;4.53;;
64957;SDS011;51486;50.232;19.208;2023-02-28T01:01:04;10.57;;;5.50;;
64957;SDS011;51486;50.232;19.208;2023-02-28T01:03:50;17.07;;;5.07;;
64957;SDS011;51486;50.232;19.208;2023-02-28T01:06:36;15.33;;;6.10;;
64957;SDS011;51486;50.232;19.208;2023-02-28T01:09:22;23.07;;;6.33;;
64957;SDS011;51486;50.232;19.208;2023-02-28T01:12:08;27.80;;;8.13;;
64957;SDS011;51486;50.232;19.208;2023-02-28T01:14:54;10.60;;;5.97;;
64957;SDS011;51486;50.232;19.208;2023-02-28T01:17:39;13.17;;;5.23;;
64957;SDS011;51486;50.232;19.208;2023-02-28T01:20:25;15.27;;;5.70;;
64957;SDS011;51486;50.232;19.208;2023-02-28T01:23:11;13.10;;;4.87;;
64957;SDS011;51486;50.232;19.208;2023-02-28T01:25:57;19.23;;;4.77;;
64957;SDS011;51486;50.232;19.208;2023-02-28T01:28:43;10.10;;;4.87;;
64957;SDS011;51486;50.232;19.208;2023-02-28T01:31:29;14.60;;;4.87;;
64957;SDS011;51486;50.232;19.208;2023-02-28T01:34:14;10.20;;;5.43;;
64957;SDS011;51486;50.232;19.208;2023-02-28T01:37:00;9.83;;;5.00;;
64957;SDS011;51486;50.232;19.208;2023-02-28T01:39:46;13.63;;;5.47;;
64957;SDS011;51486;50.232;19.208;2023-02-28T01:42:32;10.27;;;4.87;;
64957;SDS011;51486;50.232;19.208;2023-02-28T01:45:25;9.57;;;5.03;;
64957;SDS011;51486;50.232;19.208;2023-02-28T01:48:13;12.67;;;5.00;;
64957;SDS011;51486;50.232;19.208;2023-02-28T01:51:00;9.33;;;5.07;;
64957;SDS011;51486;50.232;19.208;2023-02-28T01:53:51;16.23;;;6.43;;
64957;SDS011;51486;50.232;19.208;2023-02-28T01:56:42;12.83;;;5.40;;
64957;SDS011;51486;50.232;19.208;2023-02-28T01:59:40;12.77;;;5.47;;
64957;SDS011;51486;50.232;19.208;2023-02-28T02:02:37;13.90;;;5.13;;
64957;SDS011;51486;50.232;19.208;2023-02-28T02:05:24;13.10;;;5.40;;
64957;SDS011;51486;50.232;19.208;2023-02-28T02:08:12;11.57;;;5.10;;
64957;SDS011;51486;50.232;19.208;2023-02-28T02:11:02;13.27;;;5.43;;
64957;SDS011;51486;50.232;19.208;2023-02-28T02:13:52;11.73;;;5.60;;
64957;SDS011;51486;50.232;19.208;2023-02-28T02:27:08;12.47;;;5.40;;
64957;SDS011;51486;50.232;19.208;2023-02-28T02:36:07;16.30;;;6.43;;
64957;SDS011;51486;50.232;19.208;2023-02-28T02:39:02;14.73;;;6.07;;
64957;SDS011;51486;50.232;19.208;2023-02-28T02:41:53;14.37;;;5.83;;
64957;SDS011;51486;50.232;19.208;2023-02-28T02:44:52;21.80;;;6.53;;
64957;SDS011;51486;50.232;19.208;2023-02-28T02:47:45;16.13;;;5.97;;
64957;SDS011;51486;50.232;19.208;2023-02-28T02:50:38;12.77;;;6.17;;
64957;SDS011;51486;50.232;19.208;2023-02-28T02:53:32;26.90;;;7.83;;
64957;SDS011;51486;50.232;19.208;2023-02-28T02:56:21;23.07;;;7.43;;
64957;SDS011;51486;50.232;19.208;2023-02-28T02:59:11;31.67;;;7.73;;
64957;SDS011;51486;50.232;19.208;2023-02-28T03:02:00;14.33;;;6.83;;
64957;SDS011;51486;50.232;19.208;2023-02-28T03:04:58;19.40;;;7.43;;
64957;SDS011;51486;50.232;19.208;2023-02-28T03:07:46;21.23;;;6.80;;
64957;SDS011;51486;50.232;19.208;2023-02-28T03:10:34;19.53;;;7.07;;
64957;SDS011;51486;50.232;19.208;2023-02-28T03:13:27;17.47;;;7.60;;
64957;SDS011;51486;50.232;19.208;2023-02-28T03:22:23;17.93;;;7.43;;
64957;SDS011;51486;50.232;19.208;2023-02-28T03:28:29;15.27;;;7.10;;
64957;SDS011;51486;50.232;19.208;2023-02-28T03:31:32;23.17;;;7.97;;
64957;SDS011;51486;50.232;19.208;2023-02-28T03:34:25;15.00;;;6.47;;
64957;SDS011;51486;50.232;19.208;2023-02-28T03:37:16;17.67;;;6.70;;
64957;SDS011;51486;50.232;19.208;2023-02-28T03:40:09;20.67;;;8.17;;
64957;SDS011;51486;50.232;19.208;2023-02-28T03:43:02;20.93;;;7.37;;
64957;SDS011;51486;50.232;19.208;2023-02-28T03:45:56;14.20;;;6.67;;
64957;SDS011;51486;50.232;19.208;2023-02-28T03:48:45;19.00;;;6.87;;
64957;SDS011;51486;50.232;19.208;2023-02-28T03:51:36;12.67;;;6.73;;
64957;SDS011;51486;50.232;19.208;2023-02-28T03:54:28;17.57;;;6.90;;
64957;SDS011;51486;50.232;19.208;2023-02-28T04:00:37;21.47;;;7.17;;
64957;SDS011;51486;50.232;19.208;2023-02-28T04:03:28;15.67;;;6.43;;
64957;SDS011;51486;50.232;19.208;2023-02-28T04:06:15;24.93;;;6.93;;
64957;SDS011;51486;50.232;19.208;2023-02-28T04:09:04;19.37;;;7.33;;
64957;SDS011;51486;50.232;19.208;2023-02-28T04:11:51;14.43;;;6.97;;
64957;SDS011;51486;50.232;19.208;2023-02-28T04:14:38;15.30;;;6.03;;
64957;SDS011;51486;50.232;19.208;2023-02-28T04:17:23;20.17;;;7.23;;
64957;SDS011;51486;50.232;19.208;2023-02-28T04:20:10;13.53;;;5.57;;
64957;SDS011;51486;50.232;19.208;2023-02-28T04:22:56;10.80;;;6.03;;
64957;SDS011;51486;50.232;19.208;2023-02-28T04:25:42;12.77;;;5.57;;
64957;SDS011;51486;50.232;19.208;2023-02-28T04:28:28;14.87;;;6.47;;
64957;SDS011;51486;50.232;19.208;2023-02-28T04:31:14;20.03;;;6.63;;
64957;SDS011;51486;50.232;19.208;2023-02-28T04:34:00;23.67;;;7.27;;
64957;SDS011;51486;50.232;19.208;2023-02-28T04:36:47;19.43;;;7.53;;
64957;SDS011;51486;50.232;19.208;2023-02-28T04:39:36;15.33;;;7.13;;
64957;SDS011;51486;50.232;19.208;2023-02-28T04:42:22;19.73;;;7.30;;
64957;SDS011;51486;50.232;19.208;2023-02-28T04:45:08;13.73;;;6.97;;
64957;SDS011;51486;50.232;19.208;2023-02-28T04:47:55;36.30;;;9.77;;
64957;SDS011;51486;50.232;19.208;2023-02-28T04:50:41;39.67;;;9.93;;
64957;SDS011;51486;50.232;19.208;2023-02-28T04:53:27;29.43;;;9.77;;
64957;SDS011;51486;50.232;19.208;2023-02-28T04:56:15;23.67;;;8.53;;
64957;SDS011;51486;50.232;19.208;2023-02-28T04:59:02;17.47;;;8.07;;
64957;SDS011;51486;50.232;19.208;2023-02-28T05:01:48;18.57;;;9.07;;
64957;SDS011;51486;50.232;19.208;2023-02-28T05:04:34;21.53;;;7.93;;
64957;SDS011;51486;50.232;19.208;2023-02-28T05:07:21;20.83;;;8.53;;
64957;SDS011;51486;50.232;19.208;2023-02-28T05:10:07;21.43;;;9.67;;
64957;SDS011;51486;50.232;19.208;2023-02-28T05:12:53;22.10;;;8.37;;
64957;SDS011;51486;50.232;19.208;2023-02-28T05:15:39;30.40;;;11.03;;
64957;SDS011;51486;50.232;19.208;2023-02-28T05:18:24;20.73;;;8.80;;
64957;SDS011;51486;50.232;19.208;2023-02-28T05:24:10;17.23;;;7.97;;
64957;SDS011;51486;50.232;19.208;2023-02-28T05:26:56;17.37;;;7.83;;
64957;SDS011;51486;50.232;19.208;2023-02-28T05:29:42;22.30;;;8.47;;
64957;SDS011;51486;50.232;19.208;2023-02-28T05:32:28;21.37;;;10.83;;
64957;SDS011;51486;50.232;19.208;2023-02-28T05:35:14;24.13;;;9.17;;
64957;SDS011;51486;50.232;19.208;2023-02-28T05:37:59;23.13;;;8.07;;
64957;SDS011;51486;50.232;19.208;2023-02-28T05:40:45;19.60;;;8.67;;
64957;SDS011;51486;50.232;19.208;2023-02-28T05:43:31;17.60;;;8.10;;
64957;SDS011;51486;50.232;19.208;2023-02-28T05:46:17;24.63;;;8.83;;
64957;SDS011;51486;50.232;19.208;2023-02-28T05:49:02;21.33;;;8.47;;
64957;SDS011;51486;50.232;19.208;2023-02-28T05:51:48;22.07;;;8.67;;
64957;SDS011;51486;50.232;19.208;2023-02-28T05:54:34;25.00;;;9.13;;
64957;SDS011;51486;50.232;19.208;2023-02-28T05:57:20;26.20;;;10.27;;
64957;SDS011;51486;50.232;19.208;2023-02-28T06:00:06;18.33;;;8.77;;
64957;SDS011;51486;50.232;19.208;2023-02-28T06:02:52;23.67;;;9.20;;
64957;SDS011;51486;50.232;19.208;2023-02-28T06:05:41;20.07;;;9.53;;
64957;SDS011;51486;50.232;19.208;2023-02-28T06:08:27;19.90;;;9.00;;
64957;SDS011;51486;50.232;19.208;2023-02-28T06:11:12;35.73;;;9.27;;
64957;SDS011;51486;50.232;19.208;2023-02-28T06:13:59;23.87;;;9.60;;
64957;SDS011;51486;50.232;19.208;2023-02-28T06:16:46;22.57;;;9.20;;
64957;SDS011;51486;50.232;19.208;2023-02-28T06:19:32;25.10;;;9.97;;
64957;SDS011;51486;50.232;19.208;2023-02-28T06:22:19;21.53;;;8.53;;
64957;SDS011;51486;50.232;19.208;2023-02-28T06:25:05;25.10;;;9.73;;
64957;SDS011;51486;50.232;19.208;2023-02-28T06:27:52;24.13;;;10.20;;
64957;SDS011;51486;50.232;19.208;2023-02-28T06:30:38;28.23;;;10.70;;
64957;SDS011;51486;50.232;19.208;2023-02-28T06:33:24;26.67;;;10.23;;
64957;SDS011;51486;50.232;19.208;2023-02-28T06:36:11;27.73;;;9.60;;
64957;SDS011;51486;50.232;19.208;2023-02-28T06:38:58;28.20;;;10.73;;
64957;SDS011;51486;50.232;19.208;2023-02-28T06:41:44;26.83;;;12.20;;
64957;SDS011;51486;50.232;19.208;2023-02-28T06:44:31;30.90;;;12.47;;
64957;SDS011;51486;50.232;19.208;2023-02-28T06:47:20;33.33;;;12.53;;
64957;SDS011;51486;50.232;19.208;2023-02-28T06:50:06;35.43;;;12.90;;
64957;SDS011;51486;50.232;19.208;2023-02-28T06:52:54;31.17;;;12.47;;
64957;SDS011;51486;50.232;19.208;2023-02-28T06:55:40;30.40;;;11.10;;
64957;SDS011;51486;50.232;19.208;2023-02-28T06:58:27;26.77;;;11.03;;
64957;SDS011;51486;50.232;19.208;2023-02-28T07:01:13;23.40;;;9.77;;
64957;SDS011;51486;50.232;19.208;2023-02-28T07:03:58;27.90;;;9.67;;
64957;SDS011;51486;50.232;19.208;2023-02-28T07:06:45;20.83;;;10.07;;
64957;SDS011;51486;50.232;19.208;2023-02-28T07:09:31;30.43;;;10.60;;
64957;SDS011;51486;50.232;19.208;2023-02-28T07:12:16;25.33;;;10.40;;
64957;SDS011;51486;50.232;19.208;2023-02-28T07:15:03;29.50;;;9.43;;
64957;SDS011;51486;50.232;19.208;2023-02-28T07:17:50;37.33;;;9.43;;
64957;SDS011;51486;50.232;19.208;2023-02-28T07:20:36;23.80;;;10.33;;
64957;SDS011;51486;50.232;19.208;2023-02-28T07:23:21;23.87;;;8.03;;
64957;SDS011;51486;50.232;19.208;2023-02-28T07:26:10;20.63;;;8.70;;
64957;SDS011;51486;50.232;19.208;2023-02-28T07:28:59;19.53;;;8.37;;
64957;SDS011;51486;50.232;19.208;2023-02-28T07:31:45;16.53;;;8.93;;
64957;SDS011;51486;50.232;19.208;2023-02-28T07:34:31;19.00;;;9.10;;
64957;SDS011;51486;50.232;19.208;2023-02-28T07:37:17;19.33;;;9.17;;
64957;SDS011;51486;50.232;19.208;2023-02-28T07:40:04;30.33;;;9.30;;
64957;SDS011;51486;50.232;19.208;2023-02-28T07:42:53;20.87;;;9.03;;
64957;SDS011;51486;50.232;19.208;2023-02-28T07:45:39;27.43;;;8.03;;
64957;SDS011;51486;50.232;19.208;2023-02-28T07:48:25;35.37;;;7.93;;
64957;SDS011;51486;50.232;19.208;2023-02-28T07:51:10;32.50;;;7.03;;
64957;SDS011;51486;50.232;19.208;2023-02-28T07:53:56;24.93;;;8.93;;
64957;SDS011;51486;50.232;19.208;2023-02-28T07:56:42;17.97;;;6.43;;
64957;SDS011;51486;50.232;19.208;2023-02-28T07:59:28;23.67;;;8.93;;
64957;SDS011;51486;50.232;19.208;2023-02-28T08:02:14;29.53;;;9.73;;
64957;SDS011;51486;50.232;19.208;2023-02-28T08:05:01;24.27;;;8.87;;
64957;SDS011;51486;50.232;19.208;2023-02-28T08:07:48;23.77;;;8.80;;
64957;SDS011;51486;50.232;19.208;2023-02-28T08:10:34;38.73;;;12.07;;
64957;SDS011;51486;50.232;19.208;2023-02-28T08:13:21;20.97;;;7.77;;
64957;SDS011;51486;50.232;19.208;2023-02-28T08:16:07;16.83;;;6.80;;
64957;SDS011;51486;50.232;19.208;2023-02-28T08:18:53;17.57;;;7.33;;
64957;SDS011;51486;50.232;19.208;2023-02-28T08:21:39;23.07;;;8.17;;
64957;SDS011;51486;50.232;19.208;2023-02-28T08:24:25;13.27;;;7.20;;
64957;SDS011;51486;50.232;19.208;2023-02-28T08:27:11;15.23;;;7.50;;
64957;SDS011;51486;50.232;19.208;2023-02-28T08:29:56;18.23;;;6.90;;
64957;SDS011;51486;50.232;19.208;2023-02-28T08:32:42;23.97;;;7.70;;
64957;SDS011;51486;50.232;19.208;2023-02-28T08:35:28;25.70;;;9.37;;
64957;SDS011;51486;50.232;19.208;2023-02-28T08:38:14;15.13;;;7.23;;
64957;SDS011;51486;50.232;19.208;2023-02-28T08:41:00;19.57;;;7.07;;
64957;SDS011;51486;50.232;19.208;2023-02-28T08:43:47;15.37;;;7.07;;
64957;SDS011;51486;50.232;19.208;2023-02-28T08:46:33;22.23;;;10.17;;
64957;SDS011;51486;50.232;19.208;2023-02-28T08:49:19;16.57;;;7.10;;
64957;SDS011;51486;50.232;19.208;2023-02-28T08:52:05;18.67;;;5.93;;
64957;SDS011;51486;50.232;19.208;2023-02-28T08:54:51;14.40;;;5.53;;
64957;SDS011;51486;50.232;19.208;2023-02-28T08:57:37;11.00;;;4.90;;
64957;SDS011;51486;50.232;19.208;2023-02-28T09:00:23;10.10;;;5.70;;
64957;SDS011;51486;50.232;19.208;2023-02-28T09:03:08;9.27;;;4.67;;
64957;SDS011;51486;50.232;19.208;2023-02-28T09:05:55;12.73;;;5.30;;
64957;SDS011;51486;50.232;19.208;2023-02-28T09:08:42;22.23;;;5.03;;
64957;SDS011;51486;50.232;19.208;2023-02-28T09:11:28;12.33;;;5.57;;
64957;SDS011;51486;50.232;19.208;2023-02-28T09:14:14;26.97;;;5.47;;
64957;SDS011;51486;50.232;19.208;2023-02-28T09:17:00;18.10;;;4.83;;
64957;SDS011;51486;50.232;19.208;2023-02-28T09:19:47;16.43;;;5.27;;
64957;SDS011;51486;50.232;19.208;2023-02-28T09:22:34;15.67;;;4.60;;
64957;SDS011;51486;50.232;19.208;2023-02-28T09:25:20;16.37;;;5.60;;
64957;SDS011;51486;50.232;19.208;2023-02-28T09:28:06;12.07;;;4.83;;
64957;SDS011;51486;50.232;19.208;2023-02-28T09:30:52;11.27;;;4.70;;
64957;SDS011;51486;50.232;19.208;2023-02-28T09:33:39;13.50;;;5.17;;
64957;SDS011;51486;50.232;19.208;2023-02-28T09:36:26;9.17;;;4.67;;
64957;SDS011;51486;50.232;19.208;2023-02-28T09:39:13;10.47;;;4.70;;
64957;SDS011;51486;50.232;19.208;2023-02-28T09:42:02;9.93;;;4.67;;
64957;SDS011;51486;50.232;19.208;2023-02-28T09:44:49;14.20;;;5.50;;
64957;SDS011;51486;50.232;19.208;2023-02-28T09:47:36;10.87;;;4.70;;
64957;SDS011;51486;50.232;19.208;2023-02-28T09:53:22;11.83;;;5.03;;
64957;SDS011;51486;50.232;19.208;2023-02-28T09:56:24;10.87;;;4.90;;
64957;SDS011;51486;50.232;19.208;2023-02-28T10:05:27;15.67;;;5.00;;
64957;SDS011;51486;50.232;19.208;2023-02-28T10:08:18;9.20;;;4.83;;
64957;SDS011;51486;50.232;19.208;2023-02-28T10:11:11;10.03;;;4.20;;
64957;SDS011;51486;50.232;19.208;2023-02-28T10:14:12;8.63;;;3.90;;
64957;SDS011;51486;50.232;19.208;2023-02-28T10:17:06;16.60;;;4.67;;
64957;SDS011;51486;50.232;19.208;2023-02-28T10:22:58;6.57;;;3.73;;
64957;SDS011;51486;50.232;19.208;2023-02-28T10:25:57;10.83;;;4.27;;
64957;SDS011;51486;50.232;19.208;2023-02-28T10:28:45;10.33;;;4.30;;
64957;SDS011;51486;50.232;19.208;2023-02-28T10:31:31;8.20;;;4.43;;
64957;SDS011;51486;50.232;19.208;2023-02-28T10:34:17;9.30;;;4.67;;
64957;SDS011;51486;50.232;19.208;2023-02-28T10:37:03;9.80;;;4.53;;
64957;SDS011;51486;50.232;19.208;2023-02-28T10:39:53;8.97;;;4.77;;
64957;SDS011;51486;50.232;19.208;2023-02-28T10:42:38;11.50;;;5.00;;
64957;SDS011;51486;50.232;19.208;2023-02-28T10:45:25;9.33;;;5.57;;
64957;SDS011;51486;50.232;19.208;2023-02-28T10:51:00;8.10;;;4.93;;
64957;SDS011;51486;50.232;19.208;2023-02-28T10:56:40;11.43;;;4.93;;
64957;SDS011;51486;50.232;19.208;2023-02-28T10:59:30;10.37;;;4.97;;
64957;SDS011;51486;50.232;19.208;2023-02-28T11:02:33;14.20;;;4.47;;
64957;SDS011;51486;50.232;19.208;2023-02-28T11:05:27;12.20;;;5.30;;
64957;SDS011;51486;50.232;19.208;2023-02-28T11:08:16;11.70;;;4.83;;
64957;SDS011;51486;50.232;19.208;2023-02-28T11:11:03;10.33;;;4.30;;
64957;SDS011;51486;50.232;19.208;2023-02-28T11:13:54;7.77;;;4.20;;
64957;SDS011;51486;50.232;19.208;2023-02-28T11:16:42;7.33;;;3.97;;
64957;SDS011;51486;50.232;19.208;2023-02-28T11:19:28;11.07;;;4.53;;
64957;SDS011;51486;50.232;19.208;2023-02-28T11:22:23;8.07;;;4.50;;
64957;SDS011;51486;50.232;19.208;2023-02-28T11:25:24;11.53;;;5.20;;
64957;SDS011;51486;50.232;19.208;2023-02-28T11:28:23;11.57;;;4.23;;
64957;SDS011;51486;50.232;19.208;2023-02-28T11:33:59;9.40;;;3.77;;
64957;SDS011;51486;50.232;19.208;2023-02-28T11:36:44;8.93;;;4.60;;
64957;SDS011;51486;50.232;19.208;2023-02-28T11:39:31;5.63;;;3.83;;
64957;SDS011;51486;50.232;19.208;2023-02-28T11:45:47;9.60;;;4.37;;
64957;SDS011;51486;50.232;19.208;2023-02-28T11:48:44;8.73;;;4.20;;
64957;SDS011;51486;50.232;19.208;2023-02-28T11:52:20;8.87;;;4.50;;
64957;SDS011;51486;50.232;19.208;2023-02-28T12:04:26;7.93;;;3.73;;
64957;SDS011;51486;50.232;19.208;2023-02-28T12:10:35;6.37;;;3.63;;
64957;SDS011;51486;50.232;19.208;2023-02-28T12:16:37;9.60;;;4.77;;
64957;SDS011;51486;50.232;19.208;2023-02-28T12:28:40;9.43;;;4.33;;
64957;SDS011;51486;50.232;19.208;2023-02-28T12:31:30;6.33;;;3.90;;
64957;SDS011;51486;50.232;19.208;2023-02-28T12:34:43;8.40;;;4.10;;
64957;SDS011;51486;50.232;19.208;2023-02-28T12:40:55;9.30;;;4.40;;
64957;SDS011;51486;50.232;19.208;2023-02-28T12:43:48;6.13;;;3.60;;
64957;SDS011;51486;50.232;19.208;2023-02-28T12:46:41;12.20;;;3.83;;
64957;SDS011;51486;50.232;19.208;2023-02-28T12:49:42;6.33;;;3.70;;
64957;SDS011;51486;50.232;19.208;2023-02-28T12:52:47;8.17;;;4.00;;
64957;SDS011;51486;50.232;19.208;2023-02-28T12:58:41;5.97;;;3.50;;
64957;SDS011;51486;50.232;19.208;2023-02-28T13:05:01;5.27;;;3.60;;
64957;SDS011;51486;50.232;19.208;2023-02-28T13:08:07;7.27;;;4.10;;
64957;SDS011;51486;50.232;19.208;2023-02-28T13:11:06;6.97;;;3.70;;
64957;SDS011;51486;50.232;19.208;2023-02-28T13:13:59;6.03;;;3.40;;
64957;SDS011;51486;50.232;19.208;2023-02-28T13:22:46;9.07;;;4.00;;
64957;SDS011;51486;50.232;19.208;2023-02-28T13:32:19;6.33;;;3.70;;
64957;SDS011;51486;50.232;19.208;2023-02-28T13:37:41;9.40;;;4.43;;
64957;SDS011;51486;50.232;19.208;2023-02-28T13:40:30;7.20;;;3.40;;
64957;SDS011;51486;50.232;19.208;2023-02-28T13:43:24;11.87;;;4.70;;
64957;SDS011;51486;50.232;19.208;2023-02-28T13:49:33;17.13;;;6.97;;
64957;SDS011;51486;50.232;19.208;2023-02-28T13:52:20;12.57;;;4.50;;
64957;SDS011;51486;50.232;19.208;2023-02-28T14:04:29;10.50;;;4.23;;
64957;SDS011;51486;50.232;19.208;2023-02-28T14:07:23;5.93;;;4.00;;
64957;SDS011;51486;50.232;19.208;2023-02-28T14:16:45;10.73;;;3.97;;
64957;SDS011;51486;50.232;19.208;2023-02-28T14:19:32;7.20;;;3.80;;
64957;SDS011;51486;50.232;19.208;2023-02-28T14:26:28;7.00;;;3.30;;
64957;SDS011;51486;50.232;19.208;2023-02-28T14:38:18;8.07;;;3.80;;
64957;SDS011;51486;50.232;19.208;2023-02-28T14:41:12;7.83;;;3.87;;
64957;SDS011;51486;50.232;19.208;2023-02-28T14:44:02;8.37;;;3.77;;
64957;SDS011;51486;50.232;19.208;2023-02-28T14:46:59;9.17;;;3.40;;
64957;SDS011;51486;50.232;19.208;2023-02-28T14:49:51;9.03;;;3.37;;
64957;SDS011;51486;50.232;19.208;2023-02-28T14:52:37;10.37;;;5.07;;
64957;SDS011;51486;50.232;19.208;2023-02-28T14:55:24;12.33;;;4.53;;
64957;SDS011;51486;50.232;19.208;2023-02-28T14:58:34;15.37;;;5.53;;
64957;SDS011;51486;50.232;19.208;2023-02-28T15:01:20;9.27;;;4.47;;
64957;SDS011;51486;50.232;19.208;2023-02-28T15:04:12;23.03;;;6.23;;
64957;SDS011;51486;50.232;19.208;2023-02-28T15:07:13;11.50;;;5.00;;
64957;SDS011;51486;50.232;19.208;2023-02-28T15:10:33;28.80;;;5.87;;
64957;SDS011;51486;50.232;19.208;2023-02-28T15:13:13;9.67;;;4.63;;
64957;SDS011;51486;50.232;19.208;2023-02-28T15:16:04;15.47;;;8.97;;
64957;SDS011;51486;50.232;19.208;2023-02-28T15:18:54;28.70;;;11.50;;
64957;SDS011;51486;50.232;19.208;2023-02-28T15:21:44;13.97;;;6.90;;
64957;SDS011;51486;50.232;19.208;2023-02-28T15:27:27;37.43;;;12.53;;
64957;SDS011;51486;50.232;19.208;2023-02-28T15:30:17;18.60;;;8.13;;
64957;SDS011;51486;50.232;19.208;2023-02-28T15:33:19;20.07;;;7.67;;
64957;SDS011;51486;50.232;19.208;2023-02-28T15:39:00;16.73;;;7.10;;
64957;SDS011;51486;50.232;19.208;2023-02-28T15:41:46;19.27;;;6.80;;
64957;SDS011;51486;50.232;19.208;2023-02-28T15:44:33;27.27;;;10.43;;
64957;SDS011;51486;50.232;19.208;2023-02-28T15:47:20;24.37;;;9.30;;
64957;SDS011;51486;50.232;19.208;2023-02-28T15:50:10;37.47;;;12.57;;
64957;SDS011;51486;50.232;19.208;2023-02-28T15:52:59;30.77;;;12.33;;
64957;SDS011;51486;50.232;19.208;2023-02-28T15:55:50;24.27;;;9.10;;
64957;SDS011;51486;50.232;19.208;2023-02-28T15:58:38;54.60;;;15.97;;
64957;SDS011;51486;50.232;19.208;2023-02-28T16:01:27;53.47;;;15.20;;
64957;SDS011;51486;50.232;19.208;2023-02-28T16:04:20;23.07;;;8.67;;
64957;SDS011;51486;50.232;19.208;2023-02-28T16:07:17;26.43;;;9.03;;
64957;SDS011;51486;50.232;19.208;2023-02-28T16:10:04;22.50;;;7.60;;
64957;SDS011;51486;50.232;19.208;2023-02-28T16:12:51;26.83;;;7.80;;
64957;SDS011;51486;50.232;19.208;2023-02-28T16:15:41;20.03;;;7.77;;
64957;SDS011;51486;50.232;19.208;2023-02-28T16:18:28;25.40;;;8.50;;
64957;SDS011;51486;50.232;19.208;2023-02-28T16:21:14;26.93;;;10.20;;
64957;SDS011;51486;50.232;19.208;2023-02-28T16:24:00;19.50;;;8.43;;
64957;SDS011;51486;50.232;19.208;2023-02-28T16:26:47;18.17;;;7.87;;
64957;SDS011;51486;50.232;19.208;2023-02-28T16:29:35;21.53;;;8.13;;
64957;SDS011;51486;50.232;19.208;2023-02-28T16:32:22;26.03;;;9.00;;
64957;SDS011;51486;50.232;19.208;2023-02-28T16:35:09;23.70;;;7.97;;
64957;SDS011;51486;50.232;19.208;2023-02-28T16:37:56;20.30;;;7.47;;
64957;SDS011;51486;50.232;19.208;2023-02-28T16:40:41;17.37;;;6.23;;
64957;SDS011;51486;50.232;19.208;2023-02-28T16:43:27;19.33;;;8.40;;
64957;SDS011;51486;50.232;19.208;2023-02-28T16:46:13;19.93;;;7.97;;
64957;SDS011;51486;50.232;19.208;2023-02-28T16:49:00;20.40;;;8.07;;
64957;SDS011;51486;50.232;19.208;2023-02-28T16:51:46;23.93;;;7.83;;
64957;SDS011;51486;50.232;19.208;2023-02-28T16:54:32;21.57;;;8.30;;
64957;SDS011;51486;50.232;19.208;2023-02-28T16:57:21;22.33;;;8.30;;
64957;SDS011;51486;50.232;19.208;2023-02-28T17:00:10;22.13;;;9.47;;
64957;SDS011;51486;50.232;19.208;2023-02-28T17:02:57;26.07;;;9.83;;
64957;SDS011;51486;50.232;19.208;2023-02-28T17:05:44;28.80;;;9.97;;
64957;SDS011;51486;50.232;19.208;2023-02-28T17:08:31;23.23;;;8.97;;
64957;SDS011;51486;50.232;19.208;2023-02-28T17:11:17;26.67;;;9.70;;
64957;SDS011;51486;50.232;19.208;2023-02-28T17:14:04;27.23;;;10.17;;
64957;SDS011;51486;50.232;19.208;2023-02-28T17:16:50;29.43;;;10.07;;
64957;SDS011;51486;50.232;19.208;2023-02-28T17:19:36;24.10;;;9.97;;
64957;SDS011;51486;50.232;19.208;2023-02-28T17:22:23;32.30;;;11.13;;
64957;SDS011;51486;50.232;19.208;2023-02-28T17:25:11;32.23;;;12.17;;
64957;SDS011;51486;50.232;19.208;2023-02-28T17:27:56;33.50;;;12.67;;
64957;SDS011;51486;50.232;19.208;2023-02-28T17:30:42;29.93;;;13.50;;
64957;SDS011;51486;50.232;19.208;2023-02-28T17:33:32;33.47;;;13.77;;
64957;SDS011;51486;50.232;19.208;2023-02-28T17:36:20;29.50;;;13.10;;
64957;SDS011;51486;50.232;19.208;2023-02-28T17:39:09;39.27;;;15.30;;
64957;SDS011;51486;50.232;19.208;2023-02-28T17:41:59;34.17;;;14.47;;
64957;SDS011;51486;50.232;19.208;2023-02-28T17:44:44;34.67;;;14.43;;
64957;SDS011;51486;50.232;19.208;2023-02-28T17:47:30;39.33;;;14.37;;
64957;SDS011;51486;50.232;19.208;2023-02-28T17:50:18;34.73;;;14.07;;
64957;SDS011;51486;50.232;19.208;2023-02-28T17:53:06;40.27;;;15.70;;
64957;SDS011;51486;50.232;19.208;2023-02-28T17:55:52;36.60;;;15.00;;
64957;SDS011;51486;50.232;19.208;2023-02-28T17:58:37;28.17;;;13.53;;
64957;SDS011;51486;50.232;19.208;2023-02-28T18:01:24;33.40;;;13.00;;
64957;SDS011;51486;50.232;19.208;2023-02-28T18:04:13;28.83;;;12.13;;
64957;SDS011;51486;50.232;19.208;2023-02-28T18:06:59;30.03;;;12.33;;
64957;SDS011;51486;50.232;19.208;2023-02-28T18:09:45;22.90;;;10.00;;
64957;SDS011;51486;50.232;19.208;2023-02-28T18:12:31;25.37;;;9.93;;
64957;SDS011;51486;50.232;19.208;2023-02-28T18:15:17;30.17;;;11.33;;
64957;SDS011;51486;50.232;19.208;2023-02-28T18:18:07;30.70;;;12.57;;
64957;SDS011;51486;50.232;19.208;2023-02-28T18:20:53;35.07;;;13.23;;
64957;SDS011;51486;50.232;19.208;2023-02-28T18:23:39;25.63;;;12.50;;
64957;SDS011;51486;50.232;19.208;2023-02-28T18:26:32;35.87;;;12.33;;
64957;SDS011;51486;50.232;19.208;2023-02-28T18:29:21;31.83;;;12.40;;
64957;SDS011;51486;50.232;19.208;2023-02-28T18:32:09;25.00;;;10.13;;
64957;SDS011;51486;50.232;19.208;2023-02-28T18:34:54;29.20;;;11.80;;
64957;SDS011;51486;50.232;19.208;2023-02-28T18:37:40;24.33;;;10.37;;
64957;SDS011;51486;50.232;19.208;2023-02-28T18:40:26;22.47;;;10.30;;
64957;SDS011;51486;50.232;19.208;2023-02-28T18:43:11;24.80;;;11.40;;
64957;SDS011;51486;50.232;19.208;2023-02-28T18:46:02;26.87;;;10.80;;
64957;SDS011;51486;50.232;19.208;2023-02-28T18:48:52;23.13;;;9.90;;